Time;durP1;ratioP1;P1;durP2;ratioP2;P2;SDS_P1;SDS_P2;PMS_P1;PMS_P2;Temp;Humidity;BMP_temperature;BMP_pressure;BME280_temperature;BME280_humidity;BME280_pressure;Samples;Min_cycle;Max_cycle;Signal;HPM_P1;HPM_P2
2021/11/03 00:00:21;;;;;;;19.67;8.40;;;;;;;-145.18;100.00;60484.78;5068474;28;20032;-69
2021/11/03 00:02:47;;;;;;;17.20;7.90;;;;;;;-145.18;100.00;60484.78;5079833;28;20025;-69
2021/11/03 00:05:15;;;;;;;19.00;7.73;;;;;;;-145.18;100.00;60484.78;5079562;28;20234;-70
2021/11/03 00:07:42;;;;;;;19.00;8.40;;;;;;;-145.18;100.00;60484.78;5078657;28;20032;-70
2021/11/03 00:10:09;;;;;;;19.03;8.33;;;;;;;-145.18;100.00;60484.78;5074629;28;20036;-70
2021/11/03 00:12:40;;;;;;;23.40;9.27;;;;;;;-145.18;100.00;60484.78;5067273;28;20047;-70
2021/11/03 00:15:07;;;;;;;20.33;8.43;;;;;;;-145.18;100.00;60484.78;5079737;28;20512;-69
2021/11/03 00:17:32;;;;;;;21.13;8.83;;;;;;;-145.18;100.00;60484.78;5073397;28;20163;-70
2021/11/03 00:19:58;;;;;;;20.23;8.37;;;;;;;-145.18;100.00;60484.78;5077282;28;20023;-70
2021/11/03 00:22:23;;;;;;;18.27;8.43;;;;;;;-145.18;100.00;60484.78;5073487;28;20040;-69
2021/11/03 00:24:49;;;;;;;23.50;8.90;;;;;;;-145.18;100.00;60484.78;5074230;28;20050;-69
2021/11/03 00:27:14;;;;;;;20.63;8.50;;;;;;;-145.18;100.00;60484.78;5072526;28;20020;-70
2021/11/03 00:29:40;;;;;;;19.07;8.37;;;;;;;-145.18;100.00;60484.78;5056187;28;20085;-70
2021/11/03 00:32:08;;;;;;;23.17;8.90;;;;;;;-145.18;100.00;60484.78;5077366;28;20044;-70
2021/11/03 00:34:34;;;;;;;19.40;8.30;;;;;;;-145.18;100.00;60484.78;5076395;28;20465;-70
2021/11/03 00:36:59;;;;;;;19.87;8.53;;;;;;;-145.18;100.00;60484.78;5069367;28;20052;-68
2021/11/03 00:39:26;;;;;;;20.17;8.83;;;;;;;-145.18;100.00;60484.78;5077344;28;20016;-68
2021/11/03 00:41:53;;;;;;;21.97;8.67;;;;;;;-145.18;100.00;60484.78;5078303;28;20024;-68
2021/11/03 00:44:20;;;;;;;19.10;8.30;;;;;;;-145.18;100.00;60484.78;5078998;28;20268;-68
2021/11/03 00:46:45;;;;;;;22.27;9.17;;;;;;;-145.18;100.00;60484.78;5073026;28;20249;-68
2021/11/03 00:49:11;;;;;;;19.50;8.60;;;;;;;-145.18;100.00;60484.78;5073334;28;20032;-68
2021/11/03 00:51:36;;;;;;;21.77;8.23;;;;;;;-145.18;100.00;60484.78;5072617;28;20093;-68
2021/11/03 00:54:02;;;;;;;26.83;9.90;;;;;;;-145.18;100.00;60484.78;5076642;28;20457;-68
2021/11/03 00:56:28;;;;;;;23.60;9.17;;;;;;;-145.18;100.00;60484.78;5079046;28;20086;-68
2021/11/03 00:58:53;;;;;;;22.37;9.10;;;;;;;-145.18;100.00;60484.78;5074227;28;20261;-68
2021/11/03 01:01:18;;;;;;;21.40;9.17;;;;;;;-145.18;100.00;60484.78;5077382;28;20480;-68
2021/11/03 01:03:44;;;;;;;21.93;8.87;;;;;;;-145.18;100.00;60484.78;5068831;28;20028;-68
2021/11/03 01:06:09;;;;;;;24.33;9.50;;;;;;;-145.18;100.00;60484.78;5077875;28;20044;-68
2021/11/03 01:08:35;;;;;;;20.83;9.57;;;;;;;-145.18;100.00;60484.78;5078013;28;20039;-68
2021/11/03 01:11:01;;;;;;;23.20;9.70;;;;;;;-145.18;100.00;60484.78;5079200;28;20039;-70
2021/11/03 01:13:27;;;;;;;23.90;9.83;;;;;;;-145.18;100.00;60484.78;5076421;28;20028;-70
2021/11/03 01:15:52;;;;;;;25.73;10.03;;;;;;;-145.18;100.00;60484.78;5069471;28;20216;-70
2021/11/03 01:18:18;;;;;;;22.53;9.63;;;;;;;-145.18;100.00;60484.78;5074401;28;20403;-70
2021/11/03 01:20:45;;;;;;;30.50;10.50;;;;;;;-145.18;100.00;60484.78;5068692;28;20261;-70
2021/11/03 01:23:11;;;;;;;25.60;10.17;;;;;;;-145.18;100.00;60484.78;5074165;28;20024;-70
2021/11/03 01:25:38;;;;;;;22.60;9.27;;;;;;;-145.18;100.00;60484.78;5071749;28;20286;-70
2021/11/03 01:28:04;;;;;;;23.17;9.13;;;;;;;-145.18;100.00;60484.78;5076545;28;20078;-70
2021/11/03 01:30:30;;;;;;;23.87;9.63;;;;;;;-145.18;100.00;60484.78;5067809;28;20039;-70
2021/11/03 01:32:57;;;;;;;19.93;8.77;;;;;;;-145.18;100.00;60484.78;5075832;28;20440;-70
2021/11/03 01:35:23;;;;;;;22.10;10.03;;;;;;;-145.18;100.00;60484.78;5072323;28;20028;-70
2021/11/03 01:37:50;;;;;;;22.70;9.73;;;;;;;-145.18;100.00;60484.78;5071830;28;20036;-70
2021/11/03 01:40:19;;;;;;;25.67;9.43;;;;;;;-145.18;100.00;60484.78;5073930;28;20036;-70
2021/11/03 01:42:45;;;;;;;22.60;8.70;;;;;;;-145.18;100.00;60484.78;5068171;28;20443;-70
2021/11/03 01:45:13;;;;;;;23.57;9.60;;;;;;;-145.18;100.00;60484.78;5067100;28;20106;-70
2021/11/03 01:47:43;;;;;;;25.27;9.87;;;;;;;-145.18;100.00;60484.78;5076299;28;20448;-70
2021/11/03 01:50:33;;;;;;;21.17;8.57;;;;;;;-145.18;100.00;60484.78;5070726;28;20058;-70
2021/11/03 01:53:04;;;;;;;23.23;9.53;;;;;;;-145.18;100.00;60484.78;5071667;28;20514;-70
2021/11/03 01:55:30;;;;;;;21.47;9.33;;;;;;;-145.18;100.00;60484.78;5075003;28;20361;-70
2021/11/03 01:58:07;;;;;;;28.33;10.70;;;;;;;-145.18;100.00;60484.78;5066045;28;20522;-70
2021/11/03 02:00:36;;;;;;;27.37;10.47;;;;;;;-145.18;100.00;60484.78;5068062;28;20031;-70
2021/11/03 02:05:30;;;;;;;24.17;9.23;;;;;;;-145.18;100.00;60484.78;5034636;28;20052;-70
2021/11/03 02:07:57;;;;;;;23.47;9.07;;;;;;;-145.18;100.00;60484.78;5038934;28;20328;-70
2021/11/03 02:10:23;;;;;;;22.90;9.70;;;;;;;-145.18;100.00;60484.78;5037509;28;20043;-70
2021/11/03 02:12:48;;;;;;;28.77;9.87;;;;;;;-145.18;100.00;60484.78;5038726;28;20412;-70
2021/11/03 02:15:15;;;;;;;28.17;10.67;;;;;;;-145.18;100.00;60484.78;5038552;28;20033;-70
2021/11/03 02:17:41;;;;;;;24.70;9.43;;;;;;;-145.18;100.00;60484.78;5038827;28;20539;-70
2021/11/03 02:20:12;;;;;;;29.27;11.30;;;;;;;-145.18;100.00;60484.78;5038392;28;20063;-70
2021/11/03 02:22:56;;;;;;;26.97;10.00;;;;;;;-145.18;100.00;60484.78;5038631;28;20124;-70
2021/11/03 02:26:09;;;;;;;24.87;9.73;;;;;;;-145.18;100.00;60484.78;5038251;28;20356;-70
2021/11/03 02:28:35;;;;;;;22.55;9.95;;;;;;;-145.18;100.00;60484.78;4976261;28;20514;-70
2021/11/03 02:31:01;;;;;;;29.67;11.40;;;;;;;-145.18;100.00;60484.78;4976322;28;20668;-68
2021/11/03 02:33:27;;;;;;;25.23;9.77;;;;;;;-145.18;100.00;60484.78;4976491;28;20361;-68
2021/11/03 02:36:00;;;;;;;28.47;10.47;;;;;;;-145.18;100.00;60484.78;4975849;28;20030;-68
2021/11/03 02:38:42;;;;;;;26.53;10.90;;;;;;;-145.18;100.00;60484.78;4975884;28;20149;-69
2021/11/03 02:41:25;;;;;;;30.60;11.50;;;;;;;-145.18;100.00;60484.78;4976227;28;20039;-69
2021/11/03 02:43:56;;;;;;;27.70;9.93;;;;;;;-145.18;100.00;60484.78;4977715;28;20075;-69
2021/11/03 02:46:22;;;;;;;31.88;10.00;;;;;;;-145.18;100.00;60484.78;4966978;28;20308;-68
2021/11/03 02:48:48;;;;;;;28.97;10.07;;;;;;;-145.18;100.00;60484.78;4979710;28;20367;-68
2021/11/03 02:51:15;;;;;;;32.30;12.33;;;;;;;-145.18;100.00;60484.78;4979974;28;20221;-68
2021/11/03 02:53:45;;;;;;;33.27;11.43;;;;;;;-145.18;100.00;60484.78;4979686;28;20026;-68
2021/11/03 02:56:11;;;;;;;30.70;10.93;;;;;;;-145.18;100.00;60484.78;4979357;28;20335;-69
2021/11/03 02:58:37;;;;;;;25.83;11.33;;;;;;;-145.18;100.00;60484.78;4979704;28;20030;-68
2021/11/03 03:01:18;;;;;;;29.50;12.03;;;;;;;-145.18;100.00;60484.78;4979640;28;20430;-68
2021/11/03 03:03:47;;;;;;;33.33;11.33;;;;;;;-145.18;100.00;60484.78;5007487;28;20036;-68
2021/11/03 03:06:18;;;;;;;30.67;11.57;;;;;;;-145.18;100.00;60484.78;5061449;28;20028;-68
2021/11/03 03:08:45;;;;;;;32.80;12.05;;;;;;;-145.18;100.00;60484.78;5062190;28;20120;-68
2021/11/03 03:11:10;;;;;;;32.63;11.60;;;;;;;-145.18;100.00;60484.78;5061814;28;20275;-68
2021/11/03 03:13:36;;;;;;;33.93;12.23;;;;;;;-145.18;100.00;60484.78;5061491;28;20345;-68
2021/11/03 03:16:01;;;;;;;29.60;11.43;;;;;;;-145.18;100.00;60484.78;5061418;28;20805;-69
2021/11/03 03:18:27;;;;;;;35.63;12.37;;;;;;;-145.18;100.00;60484.78;5061478;28;20513;-68
2021/11/03 03:20:52;;;;;;;31.83;11.50;;;;;;;-145.18;100.00;60484.78;5061390;28;20087;-68
2021/11/03 03:23:18;;;;;;;29.90;12.00;;;;;;;-145.18;100.00;60484.78;5061643;28;20423;-68
2021/11/03 03:25:44;;;;;;;30.00;12.40;;;;;;;-145.18;100.00;60484.78;5061276;28;20087;-68
2021/11/03 03:28:14;;;;;;;41.67;13.50;;;;;;;-145.18;100.00;60484.78;5060645;28;20024;-68
2021/11/03 03:30:40;;;;;;;31.80;12.00;;;;;;;-145.18;100.00;60484.78;5061349;28;20242;-68
2021/11/03 03:33:06;;;;;;;36.03;12.93;;;;;;;-145.18;100.00;60484.78;5057946;28;20013;-69
2021/11/03 03:35:31;;;;;;;34.97;13.00;;;;;;;-145.18;100.00;60484.78;5059969;28;20471;-69
2021/11/03 03:37:57;;;;;;;35.53;12.33;;;;;;;-145.18;100.00;60484.78;5055626;28;20387;-68
2021/11/03 03:40:22;;;;;;;36.27;13.67;;;;;;;-145.18;100.00;60484.78;5060066;28;20184;-68
2021/11/03 03:42:48;;;;;;;39.10;13.77;;;;;;;-145.18;100.00;60484.78;5061107;28;20115;-68
2021/11/03 03:45:13;;;;;;;32.57;12.40;;;;;;;-145.18;100.00;60484.78;5061231;28;20031;-68
2021/11/03 03:47:39;;;;;;;42.90;13.67;;;;;;;-145.18;100.00;60484.78;5060652;28;20052;-68
2021/11/03 03:50:06;;;;;;;40.07;12.97;;;;;;;-145.18;100.00;60484.78;5056226;28;20078;-68
2021/11/03 03:52:31;;;;;;;39.40;12.90;;;;;;;-145.18;100.00;60484.78;5053399;28;20488;-69
2021/11/03 03:54:57;;;;;;;34.23;12.53;;;;;;;-145.18;100.00;60484.78;5050935;28;20093;-69
2021/11/03 03:57:22;;;;;;;41.23;13.60;;;;;;;-145.18;100.00;60484.78;5061786;28;20020;-68
2021/11/03 03:59:47;;;;;;;42.10;13.37;;;;;;;-145.18;100.00;60484.78;5061233;28;20446;-70
2021/11/03 04:02:13;;;;;;;40.40;12.50;;;;;;;-145.18;100.00;60484.78;5061174;28;20442;-70
2021/11/03 04:04:38;;;;;;;36.47;13.13;;;;;;;-145.18;100.00;60484.78;5061441;28;20400;-70
2021/11/03 04:07:04;;;;;;;35.23;12.70;;;;;;;-145.18;100.00;60484.78;5061428;28;20036;-70
2021/11/03 04:09:30;;;;;;;36.70;12.17;;;;;;;-145.18;100.00;60484.78;5061074;28;20017;-70
2021/11/03 04:11:55;;;;;;;39.30;13.27;;;;;;;-145.18;100.00;60484.78;5060585;28;20025;-70
2021/11/03 04:14:21;;;;;;;36.03;11.57;;;;;;;-145.18;100.00;60484.78;5060597;28;20027;-68
2021/11/03 04:16:47;;;;;;;40.40;13.60;;;;;;;-145.18;100.00;60484.78;5060947;28;20315;-68
2021/11/03 04:19:12;;;;;;;38.57;12.70;;;;;;;-145.18;100.00;60484.78;5060656;28;20105;-68
2021/11/03 04:21:38;;;;;;;36.87;12.30;;;;;;;-145.18;100.00;60484.78;5060851;28;20033;-70
2021/11/03 04:24:04;;;;;;;38.83;13.17;;;;;;;-145.18;100.00;60484.78;5060846;28;20016;-70
2021/11/03 04:26:36;;;;;;;43.10;13.77;;;;;;;-145.18;100.00;60484.78;5059080;28;20105;-70
2021/11/03 04:29:02;;;;;;;36.65;12.85;;;;;;;-145.18;100.00;60484.78;5058925;28;20546;-70
2021/11/03 04:31:28;;;;;;;41.17;13.33;;;;;;;-145.18;100.00;60484.78;5060892;28;20052;-70
2021/11/03 04:33:54;;;;;;;43.77;12.90;;;;;;;-145.18;100.00;60484.78;5060365;28;20311;-70
2021/11/03 04:36:22;;;;;;;43.60;13.87;;;;;;;-145.18;100.00;60484.78;5058655;28;20115;-70
2021/11/03 04:38:49;;;;;;;37.80;13.17;;;;;;;-145.18;100.00;60484.78;5055256;28;20108;-70
2021/11/03 04:41:15;;;;;;;39.27;13.80;;;;;;;-145.18;100.00;60484.78;5061127;28;20397;-70
2021/11/03 04:43:41;;;;;;;42.70;13.67;;;;;;;-145.18;100.00;60484.78;5060013;28;20035;-70
2021/11/03 04:46:06;;;;;;;48.23;14.50;;;;;;;-145.18;100.00;60484.78;5060323;28;20031;-70
2021/11/03 04:48:32;;;;;;;49.20;14.57;;;;;;;-145.18;100.00;60484.78;5060284;28;20067;-70
2021/11/03 04:50:57;;;;;;;48.73;14.23;;;;;;;-145.18;100.00;60484.78;5059693;28;20434;-70
2021/11/03 04:53:24;;;;;;;48.67;13.47;;;;;;;-145.18;100.00;60484.78;5060358;28;20225;-70
2021/11/03 04:55:51;;;;;;;50.77;14.63;;;;;;;-145.18;100.00;60484.78;5060421;28;20040;-70
2021/11/03 04:58:17;;;;;;;56.37;13.80;;;;;;;-145.18;100.00;60484.78;5059081;28;20038;-70
2021/11/03 05:00:45;;;;;;;61.50;14.60;;;;;;;-145.18;100.00;60484.78;5059422;28;20028;-70
2021/11/03 05:03:11;;;;;;;57.40;16.97;;;;;;;-145.18;100.00;60484.78;5059711;28;20384;-70
2021/11/03 05:05:37;;;;;;;57.17;14.13;;;;;;;-145.18;100.00;60484.78;5059454;28;20029;-70
2021/11/03 05:08:02;;;;;;;58.00;15.03;;;;;;;-145.18;100.00;60484.78;5059960;28;20025;-70
2021/11/03 05:10:28;;;;;;;57.80;14.50;;;;;;;-145.18;100.00;60484.78;5059772;28;20278;-70
2021/11/03 05:12:53;;;;;;;58.83;15.93;;;;;;;-145.18;100.00;60484.78;5059636;28;20198;-70
2021/11/03 05:15:19;;;;;;;59.67;15.97;;;;;;;-145.18;100.00;60484.78;5059593;28;20445;-70
2021/11/03 05:17:44;;;;;;;58.80;15.83;;;;;;;-145.18;100.00;60484.78;5059677;28;20082;-71
2021/11/03 05:20:11;;;;;;;61.03;15.20;;;;;;;-145.18;100.00;60484.78;5059015;28;20220;-70
2021/11/03 05:22:37;;;;;;;60.30;16.07;;;;;;;-145.18;100.00;60484.78;5059576;28;20036;-70
2021/11/03 05:25:03;;;;;;;55.73;15.10;;;;;;;-145.18;100.00;60484.78;5059408;28;20036;-70
2021/11/03 05:27:29;;;;;;;55.80;16.43;;;;;;;-145.18;100.00;60484.78;5060046;28;20058;-71
2021/11/03 05:29:54;;;;;;;58.07;14.90;;;;;;;-145.18;100.00;60484.78;5051707;28;20112;-71
2021/11/03 05:32:20;;;;;;;63.27;16.40;;;;;;;-145.18;100.00;60484.78;5056574;28;20091;-71
2021/11/03 05:34:45;;;;;;;60.87;16.00;;;;;;;-145.18;100.00;60484.78;5052501;28;20025;-70
2021/11/03 05:37:16;;;;;;;78.03;17.27;;;;;;;-145.18;100.00;60484.78;5060398;28;20457;-71
2021/11/03 05:39:42;;;;;;;69.27;17.07;;;;;;;-145.18;100.00;60484.78;5060179;28;20031;-70
2021/11/03 05:42:08;;;;;;;72.93;16.07;;;;;;;-145.18;100.00;60484.78;5060176;28;20111;-71
2021/11/03 05:44:34;;;;;;;85.17;18.23;;;;;;;-145.18;100.00;60484.78;5060215;28;20476;-71
2021/11/03 05:47:00;;;;;;;85.20;18.37;;;;;;;-145.18;100.00;60484.78;5060108;28;20176;-70
2021/11/03 05:49:29;;;;;;;88.30;18.70;;;;;;;-145.18;100.00;60484.78;5060142;28;20482;-70
2021/11/03 05:51:56;;;;;;;93.83;20.07;;;;;;;-145.18;100.00;60484.78;5059862;28;20277;-70
2021/11/03 05:54:26;;;;;;;102.37;19.93;;;;;;;-145.18;100.00;60484.78;5059914;28;20082;-71
2021/11/03 05:56:53;;;;;;;103.47;19.93;;;;;;;-145.18;100.00;60484.78;5060557;28;20036;-70
2021/11/03 05:59:19;;;;;;;97.47;19.73;;;;;;;-145.18;100.00;60484.78;5052044;28;20430;-71
2021/11/03 06:01:44;;;;;;;130.80;21.47;;;;;;;-145.18;100.00;60484.78;5059873;28;20143;-70
2021/11/03 06:04:10;;;;;;;125.57;23.07;;;;;;;-145.18;100.00;60484.78;5059795;28;20135;-70
2021/11/03 06:06:37;;;;;;;142.63;22.90;;;;;;;-145.18;100.00;60484.78;5060261;28;20036;-70
2021/11/03 06:09:04;;;;;;;126.77;23.43;;;;;;;-145.18;100.00;60484.78;5061899;28;20076;-70
2021/11/03 06:11:30;;;;;;;129.60;24.53;;;;;;;-145.18;100.00;60484.78;5059347;28;20359;-70
2021/11/03 06:13:56;;;;;;;129.80;23.37;;;;;;;-145.18;100.00;60484.78;5059872;28;20163;-70
2021/11/03 06:16:22;;;;;;;147.30;26.23;;;;;;;-145.18;100.00;60484.78;5060505;28;20487;-70
2021/11/03 06:18:48;;;;;;;150.53;25.57;;;;;;;-145.18;100.00;60484.78;5064163;28;20367;-70
2021/11/03 06:21:14;;;;;;;127.17;24.07;;;;;;;-145.18;100.00;60484.78;5064553;28;20619;-70
2021/11/03 06:23:39;;;;;;;120.90;22.87;;;;;;;-145.18;100.00;60484.78;5050438;28;20080;-70
2021/11/03 06:26:05;;;;;;;126.90;24.17;;;;;;;-145.18;100.00;60484.78;5064136;28;20047;-70
2021/11/03 06:28:31;;;;;;;124.33;23.73;;;;;;;-145.18;100.00;60484.78;5060860;28;20028;-70
2021/11/03 06:30:56;;;;;;;124.53;23.23;;;;;;;-145.18;100.00;60484.78;5055573;28;20126;-70
2021/11/03 06:33:22;;;;;;;118.53;22.80;;;;;;;-145.18;100.00;60484.78;5062675;28;20025;-70
2021/11/03 06:35:48;;;;;;;123.33;23.93;;;;;;;-145.18;100.00;60484.78;5054735;28;20029;-70
2021/11/03 06:38:15;;;;;;;138.83;24.60;;;;;;;-145.18;100.00;60484.78;5063632;28;20028;-70
2021/11/03 06:40:41;;;;;;;130.10;24.10;;;;;;;-145.18;100.00;60484.78;5063596;28;20476;-70
2021/11/03 06:43:08;;;;;;;142.30;24.73;;;;;;;-145.18;100.00;60484.78;5062949;28;20333;-70
2021/11/03 06:45:34;;;;;;;150.37;25.67;;;;;;;-145.18;100.00;60484.78;5063150;28;20278;-73
2021/11/03 06:48:00;;;;;;;134.67;25.03;;;;;;;-145.18;100.00;60484.78;5063625;28;20028;-70
2021/11/03 06:50:34;;;;;;;136.47;24.67;;;;;;;-145.18;100.00;60484.78;5052446;28;20051;-70
2021/11/03 06:53:01;;;;;;;116.47;23.57;;;;;;;-145.18;100.00;60484.78;5061956;28;20101;-70
2021/11/03 06:55:28;;;;;;;106.93;21.50;;;;;;;-145.18;100.00;60484.78;5063202;28;20031;-71
2021/11/03 06:57:56;;;;;;;107.30;20.97;;;;;;;-145.18;100.00;60484.78;5062541;28;20439;-70
2021/11/03 07:00:30;;;;;;;99.60;19.80;;;;;;;-145.18;100.00;60484.78;5063444;28;20244;-70
2021/11/03 07:02:55;;;;;;;104.57;20.57;;;;;;;-145.18;100.00;60484.78;5063088;28;20028;-70
2021/11/03 07:05:21;;;;;;;115.97;22.70;;;;;;;-145.18;100.00;60484.78;5062613;28;20225;-69
2021/11/03 07:07:47;;;;;;;116.87;23.00;;;;;;;-145.18;100.00;60484.78;5062667;28;20441;-70
2021/11/03 07:10:22;;;;;;;128.17;23.30;;;;;;;-145.18;100.00;60484.78;5062554;28;20021;-70
2021/11/03 07:12:47;;;;;;;118.37;23.73;;;;;;;-145.18;100.00;60484.78;5063063;28;20070;-75
2021/11/03 07:15:13;;;;;;;110.87;22.50;;;;;;;-145.18;100.00;60484.78;5062195;28;20109;-69
2021/11/03 07:17:38;;;;;;;130.67;24.57;;;;;;;-145.18;100.00;60484.78;5062809;28;20031;-70
2021/11/03 07:20:04;;;;;;;126.53;25.83;;;;;;;-145.18;100.00;60484.78;5062255;28;20853;-70
2021/11/03 07:22:29;;;;;;;122.73;23.43;;;;;;;-145.18;100.00;60484.78;5062677;28;20234;-70
2021/11/03 07:24:55;;;;;;;106.90;24.60;;;;;;;-145.18;100.00;60484.78;5064718;28;20028;-69
2021/11/03 07:27:21;;;;;;;93.87;24.33;;;;;;;-145.18;100.00;60484.78;5059594;28;20031;-69
2021/11/03 07:29:49;;;;;;;104.20;25.63;;;;;;;-145.18;100.00;60484.78;5062458;28;20380;-70
2021/11/03 07:32:16;;;;;;;107.63;26.17;;;;;;;-145.18;100.00;60484.78;5063534;28;20028;-70
2021/11/03 07:34:41;;;;;;;92.67;23.43;;;;;;;-145.18;100.00;60484.78;5063350;28;20025;-70
2021/11/03 07:37:07;;;;;;;83.30;22.80;;;;;;;-145.18;100.00;60484.78;5063076;28;20021;-69
2021/11/03 07:39:33;;;;;;;71.73;21.87;;;;;;;-145.18;100.00;60484.78;5055491;28;20203;-70
2021/11/03 07:41:59;;;;;;;89.20;23.47;;;;;;;-145.18;100.00;60484.78;5062662;28;20063;-70
2021/11/03 07:44:25;;;;;;;81.40;22.57;;;;;;;-145.18;100.00;60484.78;5062544;28;20040;-70
2021/11/03 07:46:50;;;;;;;64.10;19.60;;;;;;;-145.18;100.00;60484.78;5065270;28;20029;-71
2021/11/03 07:49:16;;;;;;;56.67;19.07;;;;;;;-145.18;100.00;60484.78;5062314;28;20024;-71
2021/11/03 07:51:41;;;;;;;52.63;18.17;;;;;;;-145.18;100.00;60484.78;5060229;28;20441;-71
2021/11/03 07:54:07;;;;;;;54.50;18.47;;;;;;;-145.18;100.00;60484.78;5052580;28;20469;-71
2021/11/03 07:56:40;;;;;;;45.57;17.80;;;;;;;-145.18;100.00;60484.78;5061869;28;20086;-72
2021/11/03 07:59:07;;;;;;;39.23;14.20;;;;;;;-145.18;100.00;60484.78;5058141;28;20043;-73
2021/11/03 08:01:33;;;;;;;34.43;13.97;;;;;;;-145.18;100.00;60484.78;5062428;28;20025;-72
2021/11/03 08:03:58;;;;;;;28.70;11.90;;;;;;;-145.18;100.00;60484.78;5040818;28;20056;-73
2021/11/03 08:06:24;;;;;;;26.97;11.60;;;;;;;-145.18;100.00;60484.78;5041299;28;20216;-73
2021/11/03 08:09:13;;;;;;;25.03;10.60;;;;;;;-145.18;100.00;60484.78;5043414;28;20048;-73
2021/11/03 08:11:48;;;;;;;30.40;11.67;;;;;;;-145.18;100.00;60484.78;5042154;28;20045;-73
2021/11/03 08:14:16;;;;;;;27.37;10.97;;;;;;;-145.18;100.00;60484.78;5042313;28;20096;-73
2021/11/03 08:16:55;;;;;;;29.90;11.03;;;;;;;-145.18;100.00;60484.78;5041787;28;20036;-73
2021/11/03 08:19:25;;;;;;;25.60;10.27;;;;;;;-145.18;100.00;60484.78;5042168;28;20312;-71
2021/11/03 08:21:51;;;;;;;26.27;10.43;;;;;;;-145.18;100.00;60484.78;5038750;28;20488;-71
2021/11/03 08:24:16;;;;;;;24.53;9.47;;;;;;;-145.18;100.00;60484.78;5042657;28;20183;-71
2021/11/03 08:26:42;;;;;;;20.83;8.73;;;;;;;-145.18;100.00;60484.78;5041973;28;20029;-71
2021/11/03 08:29:07;;;;;;;24.90;10.70;;;;;;;-145.18;100.00;60484.78;5037437;28;20427;-71
2021/11/03 08:31:35;;;;;;;22.50;9.80;;;;;;;-145.18;100.00;60484.78;5038409;28;20028;-71
2021/11/03 08:34:01;;;;;;;21.37;9.63;;;;;;;-145.18;100.00;60484.78;5041826;28;20029;-70
2021/11/03 08:36:26;;;;;;;23.67;9.57;;;;;;;-145.18;100.00;60484.78;5041186;28;20054;-70
2021/11/03 08:38:54;;;;;;;25.43;11.00;;;;;;;-145.18;100.00;60484.78;5032950;28;20028;-71
2021/11/03 08:41:19;;;;;;;23.77;10.67;;;;;;;-145.18;100.00;60484.78;5040295;28;20408;-70
2021/11/03 08:43:47;;;;;;;25.60;10.83;;;;;;;-145.18;100.00;60484.78;5041053;28;20025;-71
2021/11/03 08:46:14;;;;;;;26.83;11.23;;;;;;;-145.18;100.00;60484.78;5041244;28;20543;-70
2021/11/03 08:48:41;;;;;;;25.77;10.13;;;;;;;-145.18;100.00;60484.78;5041248;28;20494;-70
2021/11/03 08:51:06;;;;;;;23.60;9.77;;;;;;;-145.18;100.00;60484.78;5043028;28;20025;-70
2021/11/03 08:53:31;;;;;;;25.80;11.13;;;;;;;-145.18;100.00;60484.78;5043693;28;20036;-70
2021/11/03 08:55:57;;;;;;;29.30;10.67;;;;;;;-145.18;100.00;60484.78;5041847;28;20123;-70
2021/11/03 08:58:24;;;;;;;26.53;10.97;;;;;;;-145.18;100.00;60484.78;5041164;28;20041;-70
2021/11/03 09:00:52;;;;;;;28.47;11.40;;;;;;;-145.18;100.00;60484.78;5041142;28;20021;-70
2021/11/03 09:03:18;;;;;;;28.77;10.97;;;;;;;-145.18;100.00;60484.78;5042893;28;20044;-70
2021/11/03 09:05:43;;;;;;;30.33;11.67;;;;;;;-145.18;100.00;60484.78;5042478;28;20036;-70
2021/11/03 09:08:11;;;;;;;28.83;11.40;;;;;;;-145.18;100.00;60484.78;5056114;28;20101;-70
2021/11/03 09:10:47;;;;;;;25.53;9.73;;;;;;;-145.18;100.00;60484.78;5061008;28;20121;-69
2021/11/03 09:13:21;;;;;;;26.90;11.10;;;;;;;-145.18;100.00;60484.78;5061239;28;20250;-69
2021/11/03 09:15:47;;;;;;;30.43;11.87;;;;;;;-145.18;100.00;60484.78;5060807;28;20020;-69
2021/11/03 09:18:13;;;;;;;26.60;11.23;;;;;;;-145.18;100.00;60484.78;5049716;28;20063;-69
2021/11/03 09:20:39;;;;;;;33.60;12.87;;;;;;;-145.18;100.00;60484.78;5060420;28;20641;-69
2021/11/03 09:23:06;;;;;;;30.27;11.60;;;;;;;-145.18;100.00;60484.78;5061135;28;20032;-69
2021/11/03 09:25:33;;;;;;;28.93;11.47;;;;;;;-145.18;100.00;60484.78;5056954;28;20016;-69
2021/11/03 09:27:58;;;;;;;25.30;11.23;;;;;;;-145.18;100.00;60484.78;5060371;28;20492;-69
2021/11/03 09:30:26;;;;;;;28.70;11.07;;;;;;;-145.18;100.00;60484.78;5060073;28;20039;-69
2021/11/03 09:32:54;;;;;;;32.20;12.53;;;;;;;-145.18;100.00;60484.78;5060762;28;20024;-70
2021/11/03 09:35:22;;;;;;;26.63;11.13;;;;;;;-145.18;100.00;60484.78;5060173;28;20225;-69
2021/11/03 09:37:48;;;;;;;29.07;11.80;;;;;;;-145.18;100.00;60484.78;5060286;28;20381;-70
2021/11/03 09:40:22;;;;;;;27.43;11.00;;;;;;;-145.18;100.00;60484.78;5059216;28;20281;-69
2021/11/03 09:42:48;;;;;;;28.00;11.40;;;;;;;-145.18;100.00;60484.78;5059930;28;20113;-69
2021/11/03 09:45:21;;;;;;;28.33;10.90;;;;;;;-145.18;100.00;60484.78;5060426;28;20029;-69
2021/11/03 09:48:20;;;;;;;30.73;11.93;;;;;;;-145.18;100.00;60484.78;5059884;28;20024;-69
2021/11/03 09:50:51;;;;;;;26.10;10.93;;;;;;;-145.18;100.00;60484.78;5059486;28;20105;-69
2021/11/03 09:53:29;;;;;;;28.43;11.33;;;;;;;-145.18;100.00;60484.78;5059729;28;20577;-69
2021/11/03 09:55:55;;;;;;;24.97;10.23;;;;;;;-145.18;100.00;60484.78;5059013;28;20115;-69
2021/11/03 09:58:32;;;;;;;28.97;11.40;;;;;;;-145.18;100.00;60484.78;5060457;28;20020;-69
2021/11/03 10:01:05;;;;;;;25.20;10.20;;;;;;;-145.18;100.00;60484.78;5058453;28;20029;-69
2021/11/03 10:04:21;;;;;;;25.97;10.57;;;;;;;-145.18;100.00;60484.78;5059551;28;20044;-70
2021/11/03 10:06:52;;;;;;;30.60;11.03;;;;;;;-145.18;100.00;60484.78;4997208;28;20418;-69
2021/11/03 10:09:18;;;;;;;24.20;10.07;;;;;;;-145.18;100.00;60484.78;4997666;28;20089;-69
2021/11/03 10:11:50;;;;;;;27.43;9.57;;;;;;;-145.18;100.00;60484.78;4980101;28;20377;-69
2021/11/03 10:14:16;;;;;;;28.25;10.30;;;;;;;-145.18;100.00;60484.78;4978039;28;20113;-69
2021/11/03 10:16:46;;;;;;;26.37;10.67;;;;;;;-145.18;100.00;60484.78;4991412;28;20132;-70
2021/11/03 10:19:14;;;;;;;24.07;9.97;;;;;;;-145.18;100.00;60484.78;4997322;28;20434;-70
2021/11/03 10:21:47;;;;;;;26.20;10.07;;;;;;;-145.18;100.00;60484.78;4983441;28;20041;-70
2021/11/03 10:24:12;;;;;;;24.00;10.00;;;;;;;-145.18;100.00;60484.78;4997286;28;20026;-70
2021/11/03 10:26:51;;;;;;;26.47;9.87;;;;;;;-145.18;100.00;60484.78;4997200;28;20034;-70
2021/11/03 10:29:35;;;;;;;25.77;10.40;;;;;;;-145.18;100.00;60484.78;4986847;28;20045;-70
2021/11/03 10:32:09;;;;;;;23.13;9.63;;;;;;;-145.18;100.00;60484.78;4977070;28;20144;-70
2021/11/03 10:34:35;;;;;;;26.30;10.00;;;;;;;-145.18;100.00;60484.78;4977521;28;20061;-70
2021/11/03 10:37:09;;;;;;;24.20;10.00;;;;;;;-145.18;100.00;60484.78;4984836;28;20049;-70
2021/11/03 10:39:41;;;;;;;24.13;9.90;;;;;;;-145.18;100.00;60484.78;4994347;28;20041;-70
2021/11/03 10:42:32;;;;;;;24.40;10.70;;;;;;;-145.18;100.00;60484.78;5017375;28;20051;-69
2021/11/03 10:45:28;;;;;;;23.70;9.83;;;;;;;-145.18;100.00;60484.78;5049312;28;20337;-70
2021/11/03 10:48:12;;;;;;;23.80;9.23;;;;;;;-145.18;100.00;60484.78;5059514;28;20048;-70
2021/11/03 10:50:56;;;;;;;23.53;9.30;;;;;;;-145.18;100.00;60484.78;5059365;28;20465;-70
2021/11/03 10:53:28;;;;;;;25.50;9.57;;;;;;;-145.18;100.00;60484.78;5043654;28;20028;-70
2021/11/03 10:56:00;;;;;;;24.00;10.27;;;;;;;-145.18;100.00;60484.78;5059224;28;20028;-70
2021/11/03 10:58:29;;;;;;;20.90;9.00;;;;;;;-145.18;100.00;60484.78;5059600;28;20590;-70
2021/11/03 11:01:05;;;;;;;35.77;9.77;;;;;;;-145.18;100.00;60484.78;5059372;28;20381;-70